PROFILE

 METAR AND TAF INFORMATION
ADDS - METARS form results

(0404 UTC 25 April 2019)
http://aviationweather.gov/metar/data/
 
TAF LICR 241700Z 2418/2518 VRB05KT 7000 NSC BECMG 2507/2509 17012KT 

 AIRPORT MAP

 RUNWAY INFORMATION
Runway 11 Runway length 5574 ft Runway width 148 ft
Runway elevation 38 ft Runway displaced threshold 0 ft Runway heading 113
Runway 29 Runway length 5574 ft Runway width 148 ft
Runway elevation 43 ft Runway displaced threshold 0 ft Runway heading 293
Runway 15 Runway length 6549 ft Runway width 148 ft
Runway elevation 84 ft Runway displaced threshold 840 ft Runway heading 153
Runway 33 Runway length 6549 ft Runway width 148 ft
Runway elevation 34 ft Runway displaced threshold 164 ft Runway heading 333

 AIRPORT FREQUENCIES
Type APP Name APP Frequency 120.275 MHZ
Type TWR Name TWR Frequency 118.25 MHZ

 AIRPORT NEAR NAVIGATION AIDS
Type VOR-DME Name Reggio Calabria Frequency 111000 KHZ
Type NDB Name Reggio Calabria Frequency 325 KHZ